sensor_id;sensor_type;location;lat;lon;timestamp;P1;durP1;ratioP1;P2;durP2;ratioP2
77262;SDS011;66373;52.334;4.806;2024-01-27T00:00:30;14.68;;;9.52;;
77262;SDS011;66373;52.334;4.806;2024-01-27T00:02:57;13.80;;;9.50;;
77262;SDS011;66373;52.334;4.806;2024-01-27T00:05:25;16.30;;;9.20;;
77262;SDS011;66373;52.334;4.806;2024-01-27T00:07:52;15.82;;;9.75;;
77262;SDS011;66373;52.334;4.806;2024-01-27T00:10:20;14.75;;;9.07;;
77262;SDS011;66373;52.334;4.806;2024-01-27T00:12:47;16.73;;;9.00;;
77262;SDS011;66373;52.334;4.806;2024-01-27T00:15:15;14.82;;;9.25;;
77262;SDS011;66373;52.334;4.806;2024-01-27T00:17:42;14.60;;;9.30;;
77262;SDS011;66373;52.334;4.806;2024-01-27T00:20:09;14.30;;;9.07;;
77262;SDS011;66373;52.334;4.806;2024-01-27T00:22:37;15.23;;;9.20;;
77262;SDS011;66373;52.334;4.806;2024-01-27T00:25:05;13.50;;;8.82;;
77262;SDS011;66373;52.334;4.806;2024-01-27T00:27:34;15.32;;;9.13;;
77262;SDS011;66373;52.334;4.806;2024-01-27T00:30:01;13.70;;;8.63;;
77262;SDS011;66373;52.334;4.806;2024-01-27T00:32:29;14.90;;;8.45;;
77262;SDS011;66373;52.334;4.806;2024-01-27T00:34:59;14.52;;;9.00;;
77262;SDS011;66373;52.334;4.806;2024-01-27T00:37:26;12.05;;;7.45;;
77262;SDS011;66373;52.334;4.806;2024-01-27T00:39:53;13.40;;;7.97;;
77262;SDS011;66373;52.334;4.806;2024-01-27T00:42:20;11.82;;;7.97;;
77262;SDS011;66373;52.334;4.806;2024-01-27T00:44:51;11.90;;;7.40;;
77262;SDS011;66373;52.334;4.806;2024-01-27T00:47:18;14.50;;;8.50;;
77262;SDS011;66373;52.334;4.806;2024-01-27T00:49:45;13.60;;;7.60;;
77262;SDS011;66373;52.334;4.806;2024-01-27T00:52:13;10.85;;;6.97;;
77262;SDS011;66373;52.334;4.806;2024-01-27T00:54:40;12.05;;;7.43;;
77262;SDS011;66373;52.334;4.806;2024-01-27T00:57:07;11.43;;;7.32;;
77262;SDS011;66373;52.334;4.806;2024-01-27T00:59:35;11.25;;;7.20;;
77262;SDS011;66373;52.334;4.806;2024-01-27T01:02:03;13.07;;;7.72;;
77262;SDS011;66373;52.334;4.806;2024-01-27T01:04:31;12.27;;;7.28;;
77262;SDS011;66373;52.334;4.806;2024-01-27T01:06:58;13.40;;;7.28;;
77262;SDS011;66373;52.334;4.806;2024-01-27T01:09:25;12.10;;;7.35;;
77262;SDS011;66373;52.334;4.806;2024-01-27T01:11:52;11.52;;;7.22;;
77262;SDS011;66373;52.334;4.806;2024-01-27T01:14:20;11.13;;;7.20;;
77262;SDS011;66373;52.334;4.806;2024-01-27T01:16:48;9.65;;;6.88;;
77262;SDS011;66373;52.334;4.806;2024-01-27T01:19:16;10.60;;;6.78;;
77262;SDS011;66373;52.334;4.806;2024-01-27T01:21:44;10.93;;;6.35;;
77262;SDS011;66373;52.334;4.806;2024-01-27T01:24:11;9.90;;;6.53;;
77262;SDS011;66373;52.334;4.806;2024-01-27T01:26:38;11.60;;;6.63;;
77262;SDS011;66373;52.334;4.806;2024-01-27T01:29:06;9.85;;;5.90;;
77262;SDS011;66373;52.334;4.806;2024-01-27T01:31:33;9.82;;;5.95;;
77262;SDS011;66373;52.334;4.806;2024-01-27T01:34:00;12.45;;;6.20;;
77262;SDS011;66373;52.334;4.806;2024-01-27T01:36:29;10.05;;;6.05;;
77262;SDS011;66373;52.334;4.806;2024-01-27T01:38:56;12.40;;;6.30;;
77262;SDS011;66373;52.334;4.806;2024-01-27T01:41:23;11.70;;;6.30;;
77262;SDS011;66373;52.334;4.806;2024-01-27T01:43:50;10.68;;;5.72;;
77262;SDS011;66373;52.334;4.806;2024-01-27T01:46:17;10.52;;;5.80;;
77262;SDS011;66373;52.334;4.806;2024-01-27T01:48:44;10.05;;;5.75;;
77262;SDS011;66373;52.334;4.806;2024-01-27T01:51:12;9.25;;;5.47;;
77262;SDS011;66373;52.334;4.806;2024-01-27T01:53:41;8.38;;;5.22;;
77262;SDS011;66373;52.334;4.806;2024-01-27T01:56:09;9.02;;;5.20;;
77262;SDS011;66373;52.334;4.806;2024-01-27T01:58:36;10.18;;;5.75;;
77262;SDS011;66373;52.334;4.806;2024-01-27T02:01:03;10.57;;;5.65;;
77262;SDS011;66373;52.334;4.806;2024-01-27T02:03:31;10.48;;;5.40;;
77262;SDS011;66373;52.334;4.806;2024-01-27T02:05:58;8.13;;;5.28;;
77262;SDS011;66373;52.334;4.806;2024-01-27T02:08:25;8.88;;;5.35;;
77262;SDS011;66373;52.334;4.806;2024-01-27T02:10:53;8.18;;;4.75;;
77262;SDS011;66373;52.334;4.806;2024-01-27T02:13:23;7.35;;;5.05;;
77262;SDS011;66373;52.334;4.806;2024-01-27T02:15:52;7.75;;;5.03;;
77262;SDS011;66373;52.334;4.806;2024-01-27T02:18:19;7.07;;;5.00;;
77262;SDS011;66373;52.334;4.806;2024-01-27T02:20:46;8.80;;;5.00;;
77262;SDS011;66373;52.334;4.806;2024-01-27T02:23:13;7.68;;;4.70;;
77262;SDS011;66373;52.334;4.806;2024-01-27T02:25:42;9.13;;;4.43;;
77262;SDS011;66373;52.334;4.806;2024-01-27T02:28:09;6.82;;;4.40;;
77262;SDS011;66373;52.334;4.806;2024-01-27T02:30:38;8.60;;;5.10;;
77262;SDS011;66373;52.334;4.806;2024-01-27T02:33:05;7.55;;;4.80;;
77262;SDS011;66373;52.334;4.806;2024-01-27T02:35:32;9.02;;;5.00;;
77262;SDS011;66373;52.334;4.806;2024-01-27T02:37:59;7.00;;;4.32;;
77262;SDS011;66373;52.334;4.806;2024-01-27T02:40:26;7.80;;;4.70;;
77262;SDS011;66373;52.334;4.806;2024-01-27T02:42:55;6.53;;;4.18;;
77262;SDS011;66373;52.334;4.806;2024-01-27T02:45:22;7.47;;;4.43;;
77262;SDS011;66373;52.334;4.806;2024-01-27T02:47:49;8.13;;;4.15;;
77262;SDS011;66373;52.334;4.806;2024-01-27T02:50:17;7.15;;;4.03;;
77262;SDS011;66373;52.334;4.806;2024-01-27T02:52:44;7.85;;;4.18;;
77262;SDS011;66373;52.334;4.806;2024-01-27T02:55:11;7.45;;;4.40;;
77262;SDS011;66373;52.334;4.806;2024-01-27T02:57:40;7.97;;;4.03;;
77262;SDS011;66373;52.334;4.806;2024-01-27T03:00:09;6.22;;;3.88;;
77262;SDS011;66373;52.334;4.806;2024-01-27T03:02:37;7.07;;;4.00;;
77262;SDS011;66373;52.334;4.806;2024-01-27T03:05:04;6.18;;;3.92;;
77262;SDS011;66373;52.334;4.806;2024-01-27T03:07:33;5.50;;;3.45;;
77262;SDS011;66373;52.334;4.806;2024-01-27T03:10:01;10.05;;;3.85;;
77262;SDS011;66373;52.334;4.806;2024-01-27T03:12:28;7.00;;;3.53;;
77262;SDS011;66373;52.334;4.806;2024-01-27T03:14:55;6.45;;;4.07;;
77262;SDS011;66373;52.334;4.806;2024-01-27T03:17:24;5.70;;;3.85;;
77262;SDS011;66373;52.334;4.806;2024-01-27T03:19:51;5.47;;;3.75;;
77262;SDS011;66373;52.334;4.806;2024-01-27T03:22:18;4.90;;;3.50;;
77262;SDS011;66373;52.334;4.806;2024-01-27T03:24:45;6.90;;;3.10;;
77262;SDS011;66373;52.334;4.806;2024-01-27T03:27:13;4.93;;;3.25;;
77262;SDS011;66373;52.334;4.806;2024-01-27T03:29:40;7.22;;;3.33;;
77262;SDS011;66373;52.334;4.806;2024-01-27T03:32:07;6.50;;;3.40;;
77262;SDS011;66373;52.334;4.806;2024-01-27T03:34:36;9.80;;;3.20;;
77262;SDS011;66373;52.334;4.806;2024-01-27T03:37:08;6.10;;;3.25;;
77262;SDS011;66373;52.334;4.806;2024-01-27T03:39:35;6.22;;;3.15;;
77262;SDS011;66373;52.334;4.806;2024-01-27T03:42:02;5.45;;;3.25;;
77262;SDS011;66373;52.334;4.806;2024-01-27T03:44:30;5.35;;;3.45;;
77262;SDS011;66373;52.334;4.806;2024-01-27T03:46:57;5.88;;;3.13;;
77262;SDS011;66373;52.334;4.806;2024-01-27T03:49:24;6.25;;;3.22;;
77262;SDS011;66373;52.334;4.806;2024-01-27T03:51:53;4.65;;;3.10;;
77262;SDS011;66373;52.334;4.806;2024-01-27T03:54:20;5.25;;;3.28;;
77262;SDS011;66373;52.334;4.806;2024-01-27T03:56:47;8.18;;;3.45;;
77262;SDS011;66373;52.334;4.806;2024-01-27T03:59:14;5.85;;;3.08;;
77262;SDS011;66373;52.334;4.806;2024-01-27T04:01:41;4.15;;;2.88;;
77262;SDS011;66373;52.334;4.806;2024-01-27T04:04:08;6.10;;;3.08;;
77262;SDS011;66373;52.334;4.806;2024-01-27T04:06:36;6.30;;;3.10;;
77262;SDS011;66373;52.334;4.806;2024-01-27T04:09:05;5.47;;;2.85;;
77262;SDS011;66373;52.334;4.806;2024-01-27T04:11:34;5.05;;;2.80;;
77262;SDS011;66373;52.334;4.806;2024-01-27T04:14:02;6.93;;;2.97;;
77262;SDS011;66373;52.334;4.806;2024-01-27T04:16:30;5.03;;;3.10;;
77262;SDS011;66373;52.334;4.806;2024-01-27T04:18:57;6.00;;;2.80;;
77262;SDS011;66373;52.334;4.806;2024-01-27T04:21:25;5.53;;;3.17;;
77262;SDS011;66373;52.334;4.806;2024-01-27T04:23:52;5.90;;;2.85;;
77262;SDS011;66373;52.334;4.806;2024-01-27T04:26:21;5.45;;;2.90;;
77262;SDS011;66373;52.334;4.806;2024-01-27T04:28:48;5.90;;;2.90;;
77262;SDS011;66373;52.334;4.806;2024-01-27T04:31:15;5.65;;;2.95;;
77262;SDS011;66373;52.334;4.806;2024-01-27T04:33:42;3.67;;;2.40;;
77262;SDS011;66373;52.334;4.806;2024-01-27T04:36:10;3.58;;;2.60;;
77262;SDS011;66373;52.334;4.806;2024-01-27T04:38:37;4.05;;;2.53;;
77262;SDS011;66373;52.334;4.806;2024-01-27T04:41:04;4.50;;;2.53;;
77262;SDS011;66373;52.334;4.806;2024-01-27T04:43:33;3.65;;;2.38;;
77262;SDS011;66373;52.334;4.806;2024-01-27T04:46:00;3.67;;;2.53;;
77262;SDS011;66373;52.334;4.806;2024-01-27T04:48:27;4.60;;;2.60;;
77262;SDS011;66373;52.334;4.806;2024-01-27T04:50:54;6.05;;;2.70;;
77262;SDS011;66373;52.334;4.806;2024-01-27T04:53:22;4.53;;;2.80;;
77262;SDS011;66373;52.334;4.806;2024-01-27T04:55:49;5.50;;;2.83;;
77262;SDS011;66373;52.334;4.806;2024-01-27T04:58:16;3.97;;;2.40;;
77262;SDS011;66373;52.334;4.806;2024-01-27T05:00:44;5.60;;;2.88;;
77262;SDS011;66373;52.334;4.806;2024-01-27T05:03:12;3.97;;;2.40;;
77262;SDS011;66373;52.334;4.806;2024-01-27T05:05:40;4.53;;;2.30;;
77262;SDS011;66373;52.334;4.806;2024-01-27T05:08:08;5.95;;;2.40;;
77262;SDS011;66373;52.334;4.806;2024-01-27T05:10:35;3.58;;;2.58;;
77262;SDS011;66373;52.334;4.806;2024-01-27T05:13:03;4.97;;;2.92;;
77262;SDS011;66373;52.334;4.806;2024-01-27T05:15:30;3.53;;;2.42;;
77262;SDS011;66373;52.334;4.806;2024-01-27T05:18:00;4.80;;;2.45;;
77262;SDS011;66373;52.334;4.806;2024-01-27T05:20:27;4.95;;;2.50;;
77262;SDS011;66373;52.334;4.806;2024-01-27T05:22:54;4.03;;;2.50;;
77262;SDS011;66373;52.334;4.806;2024-01-27T05:25:21;7.30;;;2.88;;
77262;SDS011;66373;52.334;4.806;2024-01-27T05:27:49;5.25;;;2.28;;
77262;SDS011;66373;52.334;4.806;2024-01-27T05:30:16;5.45;;;2.72;;
77262;SDS011;66373;52.334;4.806;2024-01-27T05:32:43;3.78;;;2.28;;
77262;SDS011;66373;52.334;4.806;2024-01-27T05:35:12;5.45;;;2.55;;
77262;SDS011;66373;52.334;4.806;2024-01-27T05:37:39;3.13;;;2.20;;
77262;SDS011;66373;52.334;4.806;2024-01-27T05:40:07;7.55;;;2.28;;
77262;SDS011;66373;52.334;4.806;2024-01-27T05:42:36;2.95;;;2.13;;
77262;SDS011;66373;52.334;4.806;2024-01-27T05:45:06;5.80;;;2.30;;
77262;SDS011;66373;52.334;4.806;2024-01-27T05:47:34;3.35;;;2.25;;
77262;SDS011;66373;52.334;4.806;2024-01-27T05:50:01;5.78;;;2.28;;
77262;SDS011;66373;52.334;4.806;2024-01-27T05:52:31;4.95;;;2.25;;
77262;SDS011;66373;52.334;4.806;2024-01-27T05:54:58;5.15;;;2.33;;
77262;SDS011;66373;52.334;4.806;2024-01-27T05:57:25;5.50;;;2.42;;
77262;SDS011;66373;52.334;4.806;2024-01-27T05:59:52;4.03;;;2.28;;
77262;SDS011;66373;52.334;4.806;2024-01-27T06:02:20;5.88;;;2.35;;
77262;SDS011;66373;52.334;4.806;2024-01-27T06:04:47;4.65;;;2.42;;
77262;SDS011;66373;52.334;4.806;2024-01-27T06:07:14;3.72;;;2.15;;
77262;SDS011;66373;52.334;4.806;2024-01-27T06:09:43;4.57;;;2.03;;
77262;SDS011;66373;52.334;4.806;2024-01-27T06:12:10;2.88;;;1.95;;
77262;SDS011;66373;52.334;4.806;2024-01-27T06:14:37;5.20;;;2.40;;
77262;SDS011;66373;52.334;4.806;2024-01-27T06:17:05;4.88;;;2.30;;
77262;SDS011;66373;52.334;4.806;2024-01-27T06:19:32;6.05;;;3.03;;
77262;SDS011;66373;52.334;4.806;2024-01-27T06:21:59;3.38;;;2.00;;
77262;SDS011;66373;52.334;4.806;2024-01-27T06:24:28;4.15;;;2.08;;
77262;SDS011;66373;52.334;4.806;2024-01-27T06:26:56;5.68;;;2.40;;
77262;SDS011;66373;52.334;4.806;2024-01-27T06:29:24;4.78;;;2.50;;
77262;SDS011;66373;52.334;4.806;2024-01-27T06:31:52;4.28;;;2.22;;
77262;SDS011;66373;52.334;4.806;2024-01-27T06:34:19;6.50;;;2.25;;
77262;SDS011;66373;52.334;4.806;2024-01-27T06:36:46;4.88;;;2.30;;
77262;SDS011;66373;52.334;4.806;2024-01-27T06:39:14;5.35;;;2.10;;
77262;SDS011;66373;52.334;4.806;2024-01-27T06:41:41;6.28;;;2.58;;
77262;SDS011;66373;52.334;4.806;2024-01-27T06:44:09;5.85;;;2.58;;
77262;SDS011;66373;52.334;4.806;2024-01-27T06:46:36;3.80;;;2.10;;
77262;SDS011;66373;52.334;4.806;2024-01-27T06:49:04;6.88;;;3.03;;
77262;SDS011;66373;52.334;4.806;2024-01-27T06:51:31;5.47;;;2.55;;
77262;SDS011;66373;52.334;4.806;2024-01-27T06:53:58;3.30;;;2.22;;
77262;SDS011;66373;52.334;4.806;2024-01-27T06:56:25;5.00;;;2.13;;
77262;SDS011;66373;52.334;4.806;2024-01-27T06:58:53;4.63;;;2.50;;
77262;SDS011;66373;52.334;4.806;2024-01-27T07:01:21;6.32;;;2.60;;
77262;SDS011;66373;52.334;4.806;2024-01-27T07:03:48;2.67;;;1.80;;
77262;SDS011;66373;52.334;4.806;2024-01-27T07:06:16;5.68;;;2.28;;
77262;SDS011;66373;52.334;4.806;2024-01-27T07:08:43;3.05;;;2.30;;
77262;SDS011;66373;52.334;4.806;2024-01-27T07:11:10;4.28;;;2.38;;
77262;SDS011;66373;52.334;4.806;2024-01-27T07:13:37;3.63;;;2.13;;
77262;SDS011;66373;52.334;4.806;2024-01-27T07:16:05;5.93;;;2.47;;
77262;SDS011;66373;52.334;4.806;2024-01-27T07:18:34;5.18;;;2.17;;
77262;SDS011;66373;52.334;4.806;2024-01-27T07:21:01;2.63;;;2.40;;
77262;SDS011;66373;52.334;4.806;2024-01-27T07:23:29;5.57;;;2.35;;
77262;SDS011;66373;52.334;4.806;2024-01-27T07:25:56;7.47;;;2.35;;
77262;SDS011;66373;52.334;4.806;2024-01-27T07:28:28;5.78;;;2.50;;
77262;SDS011;66373;52.334;4.806;2024-01-27T07:30:56;11.13;;;2.70;;
77262;SDS011;66373;52.334;4.806;2024-01-27T07:33:23;6.63;;;2.38;;
77262;SDS011;66373;52.334;4.806;2024-01-27T07:35:52;7.68;;;2.85;;
77262;SDS011;66373;52.334;4.806;2024-01-27T07:38:19;9.02;;;2.63;;
77262;SDS011;66373;52.334;4.806;2024-01-27T07:40:46;11.20;;;2.53;;
77262;SDS011;66373;52.334;4.806;2024-01-27T07:43:13;7.63;;;2.72;;
77262;SDS011;66373;52.334;4.806;2024-01-27T07:45:41;6.22;;;2.45;;
77262;SDS011;66373;52.334;4.806;2024-01-27T07:48:10;5.05;;;2.17;;
77262;SDS011;66373;52.334;4.806;2024-01-27T07:50:37;5.93;;;2.30;;
77262;SDS011;66373;52.334;4.806;2024-01-27T07:53:06;7.22;;;2.45;;
77262;SDS011;66373;52.334;4.806;2024-01-27T07:55:33;4.40;;;2.20;;
77262;SDS011;66373;52.334;4.806;2024-01-27T07:58:00;3.90;;;2.25;;
77262;SDS011;66373;52.334;4.806;2024-01-27T08:00:28;4.28;;;2.22;;
77262;SDS011;66373;52.334;4.806;2024-01-27T08:02:56;8.30;;;2.63;;
77262;SDS011;66373;52.334;4.806;2024-01-27T08:05:23;7.38;;;2.55;;
77262;SDS011;66373;52.334;4.806;2024-01-27T08:07:51;6.10;;;2.38;;
77262;SDS011;66373;52.334;4.806;2024-01-27T08:10:20;2.47;;;2.00;;
77262;SDS011;66373;52.334;4.806;2024-01-27T08:12:47;5.85;;;2.65;;
77262;SDS011;66373;52.334;4.806;2024-01-27T08:15:14;7.90;;;2.47;;
77262;SDS011;66373;52.334;4.806;2024-01-27T08:17:42;4.60;;;2.50;;
77262;SDS011;66373;52.334;4.806;2024-01-27T08:20:09;7.18;;;2.60;;
77262;SDS011;66373;52.334;4.806;2024-01-27T08:22:37;3.97;;;2.40;;
77262;SDS011;66373;52.334;4.806;2024-01-27T08:25:05;6.38;;;2.60;;
77262;SDS011;66373;52.334;4.806;2024-01-27T08:27:34;4.20;;;2.35;;
77262;SDS011;66373;52.334;4.806;2024-01-27T08:30:02;5.28;;;2.65;;
77262;SDS011;66373;52.334;4.806;2024-01-27T08:32:29;5.38;;;2.97;;
77262;SDS011;66373;52.334;4.806;2024-01-27T08:34:56;4.95;;;2.35;;
77262;SDS011;66373;52.334;4.806;2024-01-27T08:37:23;7.60;;;2.55;;
77262;SDS011;66373;52.334;4.806;2024-01-27T08:39:51;6.38;;;2.67;;
77262;SDS011;66373;52.334;4.806;2024-01-27T08:42:18;10.18;;;3.00;;
77262;SDS011;66373;52.334;4.806;2024-01-27T08:44:47;3.38;;;2.13;;
77262;SDS011;66373;52.334;4.806;2024-01-27T08:47:14;6.85;;;2.45;;
77262;SDS011;66373;52.334;4.806;2024-01-27T08:49:44;8.15;;;2.95;;
77262;SDS011;66373;52.334;4.806;2024-01-27T08:52:16;6.22;;;2.60;;
77262;SDS011;66373;52.334;4.806;2024-01-27T08:54:44;10.40;;;2.78;;
77262;SDS011;66373;52.334;4.806;2024-01-27T08:57:11;5.15;;;2.47;;
77262;SDS011;66373;52.334;4.806;2024-01-27T08:59:39;7.55;;;2.92;;
77262;SDS011;66373;52.334;4.806;2024-01-27T09:02:08;4.65;;;2.55;;
77262;SDS011;66373;52.334;4.806;2024-01-27T09:04:35;7.47;;;2.47;;
77262;SDS011;66373;52.334;4.806;2024-01-27T09:07:03;4.90;;;2.55;;
77262;SDS011;66373;52.334;4.806;2024-01-27T09:09:30;7.60;;;2.95;;
77262;SDS011;66373;52.334;4.806;2024-01-27T09:11:57;5.88;;;2.58;;
77262;SDS011;66373;52.334;4.806;2024-01-27T09:14:24;4.47;;;2.30;;
77262;SDS011;66373;52.334;4.806;2024-01-27T09:16:51;4.45;;;2.45;;
77262;SDS011;66373;52.334;4.806;2024-01-27T09:19:20;7.28;;;2.72;;
77262;SDS011;66373;52.334;4.806;2024-01-27T09:21:47;4.13;;;2.70;;
77262;SDS011;66373;52.334;4.806;2024-01-27T09:24:14;5.65;;;2.88;;
77262;SDS011;66373;52.334;4.806;2024-01-27T09:26:44;5.63;;;2.28;;
77262;SDS011;66373;52.334;4.806;2024-01-27T09:29:11;4.68;;;2.65;;
77262;SDS011;66373;52.334;4.806;2024-01-27T09:31:39;4.97;;;2.30;;
77262;SDS011;66373;52.334;4.806;2024-01-27T09:34:06;4.57;;;2.60;;
77262;SDS011;66373;52.334;4.806;2024-01-27T09:36:35;4.90;;;2.38;;
77262;SDS011;66373;52.334;4.806;2024-01-27T09:39:02;5.07;;;2.78;;
77262;SDS011;66373;52.334;4.806;2024-01-27T09:41:30;10.35;;;3.00;;
77262;SDS011;66373;52.334;4.806;2024-01-27T09:43:59;4.28;;;2.55;;
77262;SDS011;66373;52.334;4.806;2024-01-27T09:46:29;7.32;;;2.85;;
77262;SDS011;66373;52.334;4.806;2024-01-27T09:48:56;6.38;;;3.00;;
77262;SDS011;66373;52.334;4.806;2024-01-27T09:51:24;5.88;;;3.05;;
77262;SDS011;66373;52.334;4.806;2024-01-27T09:53:54;5.97;;;2.83;;
77262;SDS011;66373;52.334;4.806;2024-01-27T09:56:22;5.20;;;2.53;;
77262;SDS011;66373;52.334;4.806;2024-01-27T09:58:50;8.43;;;3.28;;
77262;SDS011;66373;52.334;4.806;2024-01-27T10:01:20;4.38;;;2.33;;
77262;SDS011;66373;52.334;4.806;2024-01-27T10:03:51;6.45;;;2.50;;
77262;SDS011;66373;52.334;4.806;2024-01-27T10:06:21;5.15;;;2.35;;
77262;SDS011;66373;52.334;4.806;2024-01-27T10:08:51;6.70;;;3.03;;
77262;SDS011;66373;52.334;4.806;2024-01-27T10:13:53;4.50;;;2.50;;
77262;SDS011;66373;52.334;4.806;2024-01-27T10:16:21;4.32;;;2.83;;
77262;SDS011;66373;52.334;4.806;2024-01-27T10:18:58;8.32;;;2.83;;
77262;SDS011;66373;52.334;4.806;2024-01-27T10:23:55;3.70;;;2.58;;
77262;SDS011;66373;52.334;4.806;2024-01-27T10:26:23;7.00;;;2.90;;
77262;SDS011;66373;52.334;4.806;2024-01-27T10:28:53;5.25;;;2.38;;
77262;SDS011;66373;52.334;4.806;2024-01-27T10:31:25;7.05;;;2.55;;
77262;SDS011;66373;52.334;4.806;2024-01-27T10:33:53;5.53;;;2.88;;
77262;SDS011;66373;52.334;4.806;2024-01-27T10:36:21;4.38;;;2.40;;
77262;SDS011;66373;52.334;4.806;2024-01-27T10:38:48;5.28;;;2.72;;
77262;SDS011;66373;52.334;4.806;2024-01-27T10:41:19;6.97;;;2.85;;
77262;SDS011;66373;52.334;4.806;2024-01-27T10:43:49;9.27;;;3.03;;
77262;SDS011;66373;52.334;4.806;2024-01-27T10:46:21;4.85;;;2.60;;
77262;SDS011;66373;52.334;4.806;2024-01-27T10:48:49;6.05;;;2.58;;
77262;SDS011;66373;52.334;4.806;2024-01-27T10:51:21;4.90;;;2.60;;
77262;SDS011;66373;52.334;4.806;2024-01-27T10:53:53;6.50;;;2.80;;
77262;SDS011;66373;52.334;4.806;2024-01-27T10:56:26;5.03;;;2.55;;
77262;SDS011;66373;52.334;4.806;2024-01-27T10:58:56;6.00;;;2.88;;
77262;SDS011;66373;52.334;4.806;2024-01-27T11:01:24;6.00;;;2.67;;
77262;SDS011;66373;52.334;4.806;2024-01-27T11:03:57;9.30;;;3.22;;
77262;SDS011;66373;52.334;4.806;2024-01-27T11:06:25;5.15;;;2.33;;
77262;SDS011;66373;52.334;4.806;2024-01-27T11:08:56;4.93;;;2.55;;
77262;SDS011;66373;52.334;4.806;2024-01-27T11:11:24;3.60;;;2.22;;
77262;SDS011;66373;52.334;4.806;2024-01-27T11:13:53;4.78;;;2.55;;
77262;SDS011;66373;52.334;4.806;2024-01-27T11:16:20;5.75;;;2.80;;
77262;SDS011;66373;52.334;4.806;2024-01-27T11:18:49;8.20;;;2.55;;
77262;SDS011;66373;52.334;4.806;2024-01-27T11:21:17;5.38;;;2.83;;
77262;SDS011;66373;52.334;4.806;2024-01-27T11:23:45;7.97;;;2.92;;
77262;SDS011;66373;52.334;4.806;2024-01-27T11:26:17;6.80;;;2.67;;
77262;SDS011;66373;52.334;4.806;2024-01-27T11:28:46;6.25;;;2.47;;
77262;SDS011;66373;52.334;4.806;2024-01-27T11:31:16;6.38;;;3.20;;
77262;SDS011;66373;52.334;4.806;2024-01-27T11:33:44;7.43;;;3.03;;
77262;SDS011;66373;52.334;4.806;2024-01-27T11:36:18;5.10;;;2.80;;
77262;SDS011;66373;52.334;4.806;2024-01-27T11:38:47;5.13;;;2.50;;
77262;SDS011;66373;52.334;4.806;2024-01-27T11:41:23;8.52;;;2.83;;
77262;SDS011;66373;52.334;4.806;2024-01-27T11:43:51;9.00;;;2.72;;
77262;SDS011;66373;52.334;4.806;2024-01-27T11:46:20;8.23;;;2.80;;
77262;SDS011;66373;52.334;4.806;2024-01-27T11:48:48;10.10;;;3.13;;
77262;SDS011;66373;52.334;4.806;2024-01-27T11:51:15;9.77;;;2.92;;
77262;SDS011;66373;52.334;4.806;2024-01-27T11:53:45;6.75;;;2.70;;
77262;SDS011;66373;52.334;4.806;2024-01-27T11:56:13;5.10;;;2.95;;
77262;SDS011;66373;52.334;4.806;2024-01-27T11:58:45;6.68;;;2.85;;
77262;SDS011;66373;52.334;4.806;2024-01-27T12:01:13;6.07;;;2.72;;
77262;SDS011;66373;52.334;4.806;2024-01-27T12:03:42;7.25;;;2.78;;
77262;SDS011;66373;52.334;4.806;2024-01-27T12:06:10;10.50;;;2.47;;
77262;SDS011;66373;52.334;4.806;2024-01-27T12:08:38;5.60;;;2.60;;
77262;SDS011;66373;52.334;4.806;2024-01-27T12:11:06;8.60;;;3.05;;
77262;SDS011;66373;52.334;4.806;2024-01-27T12:13:33;7.85;;;2.70;;
77262;SDS011;66373;52.334;4.806;2024-01-27T12:16:01;8.90;;;2.92;;
77262;SDS011;66373;52.334;4.806;2024-01-27T12:18:28;6.35;;;2.50;;
77262;SDS011;66373;52.334;4.806;2024-01-27T12:20:57;8.43;;;2.70;;
77262;SDS011;66373;52.334;4.806;2024-01-27T12:23:24;10.50;;;3.28;;
77262;SDS011;66373;52.334;4.806;2024-01-27T12:25:54;6.25;;;2.70;;
77262;SDS011;66373;52.334;4.806;2024-01-27T12:28:22;6.55;;;2.33;;
77262;SDS011;66373;52.334;4.806;2024-01-27T12:30:49;5.88;;;2.75;;
77262;SDS011;66373;52.334;4.806;2024-01-27T12:33:17;7.43;;;3.03;;
77262;SDS011;66373;52.334;4.806;2024-01-27T12:35:49;4.03;;;2.38;;
77262;SDS011;66373;52.334;4.806;2024-01-27T12:38:20;9.38;;;2.80;;
77262;SDS011;66373;52.334;4.806;2024-01-27T12:40:48;6.82;;;2.78;;
77262;SDS011;66373;52.334;4.806;2024-01-27T12:43:16;5.80;;;2.80;;
77262;SDS011;66373;52.334;4.806;2024-01-27T12:45:43;5.47;;;2.50;;
77262;SDS011;66373;52.334;4.806;2024-01-27T12:48:10;6.18;;;2.30;;
77262;SDS011;66373;52.334;4.806;2024-01-27T12:50:37;8.63;;;3.00;;
77262;SDS011;66373;52.334;4.806;2024-01-27T12:53:05;6.63;;;2.60;;
77262;SDS011;66373;52.334;4.806;2024-01-27T12:55:33;7.60;;;2.60;;
77262;SDS011;66373;52.334;4.806;2024-01-27T12:58:00;5.05;;;2.35;;
77262;SDS011;66373;52.334;4.806;2024-01-27T13:00:28;6.65;;;2.60;;
77262;SDS011;66373;52.334;4.806;2024-01-27T13:02:55;4.72;;;2.38;;
77262;SDS011;66373;52.334;4.806;2024-01-27T13:05:22;4.85;;;2.33;;
77262;SDS011;66373;52.334;4.806;2024-01-27T13:07:50;8.55;;;3.28;;
77262;SDS011;66373;52.334;4.806;2024-01-27T13:10:17;7.40;;;2.80;;
77262;SDS011;66373;52.334;4.806;2024-01-27T13:12:46;6.80;;;2.95;;
77262;SDS011;66373;52.334;4.806;2024-01-27T13:15:13;6.60;;;2.78;;
77262;SDS011;66373;52.334;4.806;2024-01-27T13:17:40;4.10;;;2.60;;
77262;SDS011;66373;52.334;4.806;2024-01-27T13:20:08;6.97;;;2.60;;
77262;SDS011;66373;52.334;4.806;2024-01-27T13:22:39;7.15;;;2.45;;
77262;SDS011;66373;52.334;4.806;2024-01-27T13:25:07;5.53;;;2.53;;
77262;SDS011;66373;52.334;4.806;2024-01-27T13:27:34;7.18;;;3.00;;
77262;SDS011;66373;52.334;4.806;2024-01-27T13:30:03;9.27;;;2.65;;
77262;SDS011;66373;52.334;4.806;2024-01-27T13:32:32;6.95;;;2.67;;
77262;SDS011;66373;52.334;4.806;2024-01-27T13:34:59;5.75;;;2.80;;
77262;SDS011;66373;52.334;4.806;2024-01-27T13:37:26;9.27;;;2.90;;
77262;SDS011;66373;52.334;4.806;2024-01-27T13:39:58;8.20;;;2.55;;
77262;SDS011;66373;52.334;4.806;2024-01-27T13:42:26;6.45;;;2.83;;
77262;SDS011;66373;52.334;4.806;2024-01-27T13:44:53;5.50;;;2.53;;
77262;SDS011;66373;52.334;4.806;2024-01-27T13:47:21;6.97;;;3.20;;
77262;SDS011;66373;52.334;4.806;2024-01-27T13:49:49;6.32;;;2.70;;
77262;SDS011;66373;52.334;4.806;2024-01-27T13:52:16;7.57;;;3.25;;
77262;SDS011;66373;52.334;4.806;2024-01-27T13:54:43;7.70;;;2.92;;
77262;SDS011;66373;52.334;4.806;2024-01-27T13:57:11;7.55;;;2.80;;
77262;SDS011;66373;52.334;4.806;2024-01-27T13:59:38;6.20;;;2.70;;
77262;SDS011;66373;52.334;4.806;2024-01-27T14:02:05;6.70;;;3.35;;
77262;SDS011;66373;52.334;4.806;2024-01-27T14:04:35;9.10;;;2.95;;
77262;SDS011;66373;52.334;4.806;2024-01-27T14:07:02;5.78;;;2.80;;
77262;SDS011;66373;52.334;4.806;2024-01-27T14:09:31;10.20;;;3.05;;
77262;SDS011;66373;52.334;4.806;2024-01-27T14:11:59;7.78;;;3.10;;
77262;SDS011;66373;52.334;4.806;2024-01-27T14:14:26;9.82;;;2.75;;
77262;SDS011;66373;52.334;4.806;2024-01-27T14:16:54;7.38;;;2.63;;
77262;SDS011;66373;52.334;4.806;2024-01-27T14:19:21;6.60;;;2.85;;
77262;SDS011;66373;52.334;4.806;2024-01-27T14:21:50;6.15;;;3.00;;
77262;SDS011;66373;52.334;4.806;2024-01-27T14:24:17;7.50;;;3.00;;
77262;SDS011;66373;52.334;4.806;2024-01-27T14:26:44;9.32;;;2.90;;
77262;SDS011;66373;52.334;4.806;2024-01-27T14:29:11;6.15;;;2.70;;
77262;SDS011;66373;52.334;4.806;2024-01-27T14:31:39;7.25;;;3.20;;
77262;SDS011;66373;52.334;4.806;2024-01-27T14:34:06;9.77;;;3.30;;
77262;SDS011;66373;52.334;4.806;2024-01-27T14:36:34;10.70;;;3.20;;
77262;SDS011;66373;52.334;4.806;2024-01-27T14:39:03;6.43;;;2.72;;
77262;SDS011;66373;52.334;4.806;2024-01-27T14:41:34;7.32;;;3.08;;
77262;SDS011;66373;52.334;4.806;2024-01-27T14:44:02;5.18;;;2.55;;
77262;SDS011;66373;52.334;4.806;2024-01-27T14:46:29;8.25;;;3.00;;
77262;SDS011;66373;52.334;4.806;2024-01-27T14:48:57;5.78;;;2.70;;
77262;SDS011;66373;52.334;4.806;2024-01-27T14:51:24;7.95;;;2.95;;
77262;SDS011;66373;52.334;4.806;2024-01-27T14:53:51;6.38;;;3.03;;